sensor_id;sensor_type;location;lat;lon;timestamp;P1;durP1;ratioP1;P2;durP2;ratioP2
54591;SDS011;40488;48.558;18.150;2023-08-06T00:00:29;1.33;;;1.23;;
54591;SDS011;40488;48.558;18.150;2023-08-06T00:02:58;3.92;;;2.00;;
54591;SDS011;40488;48.558;18.150;2023-08-06T00:05:28;2.00;;;1.60;;
54591;SDS011;40488;48.558;18.150;2023-08-06T00:07:56;2.22;;;1.92;;
54591;SDS011;40488;48.558;18.150;2023-08-06T00:10:26;1.83;;;1.70;;
54591;SDS011;40488;48.558;18.150;2023-08-06T00:12:54;2.05;;;1.77;;
54591;SDS011;40488;48.558;18.150;2023-08-06T00:15:25;2.03;;;1.77;;
54591;SDS011;40488;48.558;18.150;2023-08-06T00:17:54;1.23;;;0.95;;
54591;SDS011;40488;48.558;18.150;2023-08-06T00:20:23;2.13;;;1.50;;
54591;SDS011;40488;48.558;18.150;2023-08-06T00:22:52;6.13;;;2.78;;
54591;SDS011;40488;48.558;18.150;2023-08-06T00:25:21;1.13;;;1.00;;
54591;SDS011;40488;48.558;18.150;2023-08-06T00:27:50;2.05;;;1.73;;
54591;SDS011;40488;48.558;18.150;2023-08-06T00:30:19;3.03;;;2.05;;
54591;SDS011;40488;48.558;18.150;2023-08-06T00:32:51;3.80;;;2.10;;
54591;SDS011;40488;48.558;18.150;2023-08-06T00:35:20;2.47;;;2.03;;
54591;SDS011;40488;48.558;18.150;2023-08-06T00:37:49;3.15;;;1.92;;
54591;SDS011;40488;48.558;18.150;2023-08-06T00:40:20;1.50;;;1.38;;
54591;SDS011;40488;48.558;18.150;2023-08-06T00:42:50;4.28;;;2.42;;
54591;SDS011;40488;48.558;18.150;2023-08-06T00:45:19;3.03;;;2.42;;
54591;SDS011;40488;48.558;18.150;2023-08-06T00:47:48;2.28;;;2.08;;
54591;SDS011;40488;48.558;18.150;2023-08-06T00:50:19;1.58;;;1.20;;
54591;SDS011;40488;48.558;18.150;2023-08-06T00:52:49;1.90;;;1.63;;
54591;SDS011;40488;48.558;18.150;2023-08-06T00:55:18;2.88;;;1.60;;
54591;SDS011;40488;48.558;18.150;2023-08-06T00:57:48;2.15;;;1.95;;
54591;SDS011;40488;48.558;18.150;2023-08-06T01:00:18;4.20;;;2.20;;
54591;SDS011;40488;48.558;18.150;2023-08-06T01:02:49;3.08;;;1.67;;
54591;SDS011;40488;48.558;18.150;2023-08-06T01:05:20;2.13;;;1.67;;
54591;SDS011;40488;48.558;18.150;2023-08-06T01:07:54;3.13;;;1.70;;
54591;SDS011;40488;48.558;18.150;2023-08-06T01:10:40;2.72;;;1.65;;
54591;SDS011;40488;48.558;18.150;2023-08-06T01:13:16;2.58;;;2.05;;
54591;SDS011;40488;48.558;18.150;2023-08-06T01:15:53;2.28;;;1.83;;
54591;SDS011;40488;48.558;18.150;2023-08-06T01:18:25;2.42;;;1.75;;
54591;SDS011;40488;48.558;18.150;2023-08-06T01:20:55;2.65;;;1.85;;
54591;SDS011;40488;48.558;18.150;2023-08-06T01:23:24;2.35;;;1.50;;
54591;SDS011;40488;48.558;18.150;2023-08-06T01:25:56;2.40;;;1.90;;
54591;SDS011;40488;48.558;18.150;2023-08-06T01:28:37;2.67;;;1.95;;
54591;SDS011;40488;48.558;18.150;2023-08-06T01:31:14;2.25;;;2.00;;
54591;SDS011;40488;48.558;18.150;2023-08-06T01:33:47;1.15;;;1.05;;
54591;SDS011;40488;48.558;18.150;2023-08-06T01:36:19;8.10;;;1.83;;
54591;SDS011;40488;48.558;18.150;2023-08-06T01:38:50;3.95;;;1.88;;
54591;SDS011;40488;48.558;18.150;2023-08-06T01:41:21;3.53;;;2.25;;
54591;SDS011;40488;48.558;18.150;2023-08-06T01:43:49;1.38;;;1.27;;
54591;SDS011;40488;48.558;18.150;2023-08-06T01:46:18;3.38;;;3.03;;
54591;SDS011;40488;48.558;18.150;2023-08-06T01:48:48;1.80;;;1.30;;
54591;SDS011;40488;48.558;18.150;2023-08-06T01:51:16;7.40;;;2.60;;
54591;SDS011;40488;48.558;18.150;2023-08-06T01:53:47;1.88;;;1.40;;
54591;SDS011;40488;48.558;18.150;2023-08-06T01:56:18;1.95;;;1.73;;
54591;SDS011;40488;48.558;18.150;2023-08-06T01:58:47;1.75;;;1.55;;
54591;SDS011;40488;48.558;18.150;2023-08-06T02:01:16;2.88;;;1.52;;
54591;SDS011;40488;48.558;18.150;2023-08-06T02:03:45;1.90;;;1.70;;
54591;SDS011;40488;48.558;18.150;2023-08-06T02:06:14;2.83;;;1.75;;
54591;SDS011;40488;48.558;18.150;2023-08-06T02:08:46;2.40;;;2.13;;
54591;SDS011;40488;48.558;18.150;2023-08-06T02:11:15;1.80;;;1.65;;
54591;SDS011;40488;48.558;18.150;2023-08-06T02:13:44;4.05;;;1.90;;
54591;SDS011;40488;48.558;18.150;2023-08-06T02:16:18;3.53;;;2.13;;
54591;SDS011;40488;48.558;18.150;2023-08-06T02:18:47;4.22;;;1.60;;
54591;SDS011;40488;48.558;18.150;2023-08-06T02:21:24;1.15;;;1.05;;
54591;SDS011;40488;48.558;18.150;2023-08-06T02:23:55;3.00;;;1.80;;
54591;SDS011;40488;48.558;18.150;2023-08-06T02:26:24;1.98;;;1.77;;
54591;SDS011;40488;48.558;18.150;2023-08-06T02:28:55;2.10;;;1.92;;
54591;SDS011;40488;48.558;18.150;2023-08-06T02:31:24;3.03;;;2.30;;
54591;SDS011;40488;48.558;18.150;2023-08-06T02:33:53;1.60;;;1.50;;
54591;SDS011;40488;48.558;18.150;2023-08-06T02:36:22;1.83;;;1.50;;
54591;SDS011;40488;48.558;18.150;2023-08-06T02:38:51;2.45;;;2.08;;
54591;SDS011;40488;48.558;18.150;2023-08-06T02:41:23;2.00;;;1.80;;
54591;SDS011;40488;48.558;18.150;2023-08-06T02:43:52;0.93;;;0.90;;
54591;SDS011;40488;48.558;18.150;2023-08-06T02:46:22;1.05;;;0.98;;
54591;SDS011;40488;48.558;18.150;2023-08-06T02:48:51;1.42;;;1.33;;
54591;SDS011;40488;48.558;18.150;2023-08-06T02:51:21;2.25;;;1.15;;
54591;SDS011;40488;48.558;18.150;2023-08-06T02:53:50;2.33;;;1.63;;
54591;SDS011;40488;48.558;18.150;2023-08-06T02:56:20;1.92;;;1.40;;
54591;SDS011;40488;48.558;18.150;2023-08-06T02:59:02;1.23;;;0.95;;
54591;SDS011;40488;48.558;18.150;2023-08-06T03:01:42;1.02;;;0.93;;
54591;SDS011;40488;48.558;18.150;2023-08-06T03:04:18;0.90;;;0.85;;
54591;SDS011;40488;48.558;18.150;2023-08-06T03:06:49;1.17;;;1.05;;
54591;SDS011;40488;48.558;18.150;2023-08-06T03:09:21;1.45;;;0.93;;
54591;SDS011;40488;48.558;18.150;2023-08-06T03:11:51;0.70;;;0.70;;
54591;SDS011;40488;48.558;18.150;2023-08-06T03:16:51;0.80;;;0.70;;
54591;SDS011;40488;48.558;18.150;2023-08-06T03:19:21;1.77;;;1.13;;
54591;SDS011;40488;48.558;18.150;2023-08-06T03:21:50;0.90;;;0.82;;
54591;SDS011;40488;48.558;18.150;2023-08-06T03:24:19;0.80;;;0.80;;
54591;SDS011;40488;48.558;18.150;2023-08-06T03:26:48;1.08;;;0.85;;
54591;SDS011;40488;48.558;18.150;2023-08-06T03:29:17;0.70;;;0.70;;
54591;SDS011;40488;48.558;18.150;2023-08-06T03:31:48;0.70;;;0.70;;
54591;SDS011;40488;48.558;18.150;2023-08-06T03:34:17;0.80;;;0.80;;
54591;SDS011;40488;48.558;18.150;2023-08-06T03:36:48;1.35;;;1.25;;
54591;SDS011;40488;48.558;18.150;2023-08-06T03:39:17;0.65;;;0.65;;
54591;SDS011;40488;48.558;18.150;2023-08-06T03:41:46;0.55;;;0.55;;
54591;SDS011;40488;48.558;18.150;2023-08-06T03:44:16;0.75;;;0.75;;
54591;SDS011;40488;48.558;18.150;2023-08-06T03:46:45;0.50;;;0.50;;
54591;SDS011;40488;48.558;18.150;2023-08-06T03:49:16;0.55;;;0.55;;
54591;SDS011;40488;48.558;18.150;2023-08-06T03:51:46;0.85;;;0.85;;
54591;SDS011;40488;48.558;18.150;2023-08-06T03:54:15;0.50;;;0.50;;
54591;SDS011;40488;48.558;18.150;2023-08-06T03:56:44;0.68;;;0.63;;
54591;SDS011;40488;48.558;18.150;2023-08-06T03:59:15;0.50;;;0.50;;
54591;SDS011;40488;48.558;18.150;2023-08-06T04:01:48;1.60;;;1.13;;
54591;SDS011;40488;48.558;18.150;2023-08-06T04:04:17;0.57;;;0.57;;
54591;SDS011;40488;48.558;18.150;2023-08-06T04:06:46;0.40;;;0.40;;
54591;SDS011;40488;48.558;18.150;2023-08-06T04:09:16;0.50;;;0.50;;
54591;SDS011;40488;48.558;18.150;2023-08-06T04:11:45;0.47;;;0.47;;
54591;SDS011;40488;48.558;18.150;2023-08-06T04:14:14;0.60;;;0.60;;
54591;SDS011;40488;48.558;18.150;2023-08-06T04:16:43;0.80;;;0.80;;
54591;SDS011;40488;48.558;18.150;2023-08-06T04:19:13;1.17;;;0.60;;
54591;SDS011;40488;48.558;18.150;2023-08-06T04:21:42;0.43;;;0.43;;
54591;SDS011;40488;48.558;18.150;2023-08-06T04:24:11;0.60;;;0.60;;
54591;SDS011;40488;48.558;18.150;2023-08-06T04:26:40;5.85;;;0.88;;
54591;SDS011;40488;48.558;18.150;2023-08-06T04:29:11;0.38;;;0.38;;
54591;SDS011;40488;48.558;18.150;2023-08-06T04:31:40;0.45;;;0.45;;
54591;SDS011;40488;48.558;18.150;2023-08-06T04:34:09;0.40;;;0.40;;
54591;SDS011;40488;48.558;18.150;2023-08-06T04:36:40;0.45;;;0.45;;
54591;SDS011;40488;48.558;18.150;2023-08-06T04:39:09;0.40;;;0.40;;
54591;SDS011;40488;48.558;18.150;2023-08-06T04:41:39;0.43;;;0.43;;
54591;SDS011;40488;48.558;18.150;2023-08-06T04:44:08;0.60;;;0.60;;
54591;SDS011;40488;48.558;18.150;2023-08-06T04:46:38;0.55;;;0.55;;
54591;SDS011;40488;48.558;18.150;2023-08-06T04:49:07;0.40;;;0.40;;
54591;SDS011;40488;48.558;18.150;2023-08-06T04:51:36;0.45;;;0.45;;
54591;SDS011;40488;48.558;18.150;2023-08-06T04:54:07;0.40;;;0.40;;
54591;SDS011;40488;48.558;18.150;2023-08-06T04:56:36;0.40;;;0.40;;
54591;SDS011;40488;48.558;18.150;2023-08-06T04:59:05;0.43;;;0.43;;
54591;SDS011;40488;48.558;18.150;2023-08-06T05:01:34;0.47;;;0.47;;
54591;SDS011;40488;48.558;18.150;2023-08-06T05:04:03;0.50;;;0.50;;
54591;SDS011;40488;48.558;18.150;2023-08-06T05:06:32;0.50;;;0.50;;
54591;SDS011;40488;48.558;18.150;2023-08-06T05:09:01;0.80;;;0.77;;
54591;SDS011;40488;48.558;18.150;2023-08-06T05:11:31;0.40;;;0.40;;
54591;SDS011;40488;48.558;18.150;2023-08-06T05:14:00;0.40;;;0.40;;
54591;SDS011;40488;48.558;18.150;2023-08-06T05:16:29;0.40;;;0.40;;
54591;SDS011;40488;48.558;18.150;2023-08-06T05:18:58;0.45;;;0.45;;
54591;SDS011;40488;48.558;18.150;2023-08-06T05:21:27;0.40;;;0.40;;
54591;SDS011;40488;48.558;18.150;2023-08-06T05:23:56;0.50;;;0.50;;
54591;SDS011;40488;48.558;18.150;2023-08-06T05:26:25;0.30;;;0.30;;
54591;SDS011;40488;48.558;18.150;2023-08-06T05:28:55;0.40;;;0.40;;
54591;SDS011;40488;48.558;18.150;2023-08-06T05:31:24;1.45;;;1.20;;
54591;SDS011;40488;48.558;18.150;2023-08-06T05:33:53;0.40;;;0.40;;
54591;SDS011;40488;48.558;18.150;2023-08-06T05:36:21;0.40;;;0.40;;
54591;SDS011;40488;48.558;18.150;2023-08-06T05:38:53;0.40;;;0.40;;
54591;SDS011;40488;48.558;18.150;2023-08-06T05:41:22;0.40;;;0.40;;
54591;SDS011;40488;48.558;18.150;2023-08-06T05:43:50;0.47;;;0.47;;
54591;SDS011;40488;48.558;18.150;2023-08-06T05:46:21;0.40;;;0.40;;
54591;SDS011;40488;48.558;18.150;2023-08-06T05:48:50;0.40;;;0.40;;
54591;SDS011;40488;48.558;18.150;2023-08-06T05:51:19;0.40;;;0.40;;
54591;SDS011;40488;48.558;18.150;2023-08-06T05:53:48;0.40;;;0.40;;
54591;SDS011;40488;48.558;18.150;2023-08-06T05:56:17;0.32;;;0.32;;
54591;SDS011;40488;48.558;18.150;2023-08-06T05:58:46;0.40;;;0.40;;
54591;SDS011;40488;48.558;18.150;2023-08-06T06:01:15;0.40;;;0.40;;
54591;SDS011;40488;48.558;18.150;2023-08-06T06:03:46;0.40;;;0.40;;
54591;SDS011;40488;48.558;18.150;2023-08-06T06:06:15;0.50;;;0.50;;
54591;SDS011;40488;48.558;18.150;2023-08-06T06:08:45;0.40;;;0.40;;
54591;SDS011;40488;48.558;18.150;2023-08-06T06:11:14;0.30;;;0.30;;
54591;SDS011;40488;48.558;18.150;2023-08-06T06:13:43;0.45;;;0.45;;
54591;SDS011;40488;48.558;18.150;2023-08-06T06:16:11;0.47;;;0.47;;
54591;SDS011;40488;48.558;18.150;2023-08-06T06:18:40;0.30;;;0.30;;
54591;SDS011;40488;48.558;18.150;2023-08-06T06:21:11;0.40;;;0.40;;
54591;SDS011;40488;48.558;18.150;2023-08-06T06:23:40;0.32;;;0.32;;
54591;SDS011;40488;48.558;18.150;2023-08-06T06:26:09;0.40;;;0.40;;
54591;SDS011;40488;48.558;18.150;2023-08-06T06:28:38;0.68;;;0.68;;
54591;SDS011;40488;48.558;18.150;2023-08-06T06:31:06;0.40;;;0.40;;
54591;SDS011;40488;48.558;18.150;2023-08-06T06:36:06;0.50;;;0.50;;
54591;SDS011;40488;48.558;18.150;2023-08-06T06:38:37;0.38;;;0.38;;
54591;SDS011;40488;48.558;18.150;2023-08-06T06:41:06;0.40;;;0.40;;
54591;SDS011;40488;48.558;18.150;2023-08-06T06:43:35;0.40;;;0.40;;
54591;SDS011;40488;48.558;18.150;2023-08-06T06:46:05;0.40;;;0.40;;
54591;SDS011;40488;48.558;18.150;2023-08-06T06:48:34;0.40;;;0.40;;
54591;SDS011;40488;48.558;18.150;2023-08-06T06:51:03;0.40;;;0.40;;
54591;SDS011;40488;48.558;18.150;2023-08-06T06:53:31;0.40;;;0.40;;
54591;SDS011;40488;48.558;18.150;2023-08-06T06:56:03;0.40;;;0.40;;
54591;SDS011;40488;48.558;18.150;2023-08-06T06:58:32;0.40;;;0.40;;
54591;SDS011;40488;48.558;18.150;2023-08-06T07:01:01;0.38;;;0.38;;
54591;SDS011;40488;48.558;18.150;2023-08-06T07:03:30;0.40;;;0.40;;
54591;SDS011;40488;48.558;18.150;2023-08-06T07:05:59;0.50;;;0.50;;
54591;SDS011;40488;48.558;18.150;2023-08-06T07:08:28;0.40;;;0.40;;
54591;SDS011;40488;48.558;18.150;2023-08-06T07:11:01;0.40;;;0.40;;
54591;SDS011;40488;48.558;18.150;2023-08-06T07:13:31;0.40;;;0.40;;
54591;SDS011;40488;48.558;18.150;2023-08-06T07:16:01;0.30;;;0.30;;
54591;SDS011;40488;48.558;18.150;2023-08-06T07:18:30;0.50;;;0.50;;
54591;SDS011;40488;48.558;18.150;2023-08-06T07:20:59;0.40;;;0.40;;
54591;SDS011;40488;48.558;18.150;2023-08-06T07:23:27;0.40;;;0.40;;
54591;SDS011;40488;48.558;18.150;2023-08-06T07:25:56;0.40;;;0.40;;
54591;SDS011;40488;48.558;18.150;2023-08-06T07:28:27;0.40;;;0.40;;
54591;SDS011;40488;48.558;18.150;2023-08-06T07:30:55;0.40;;;0.40;;
54591;SDS011;40488;48.558;18.150;2023-08-06T07:33:24;0.40;;;0.40;;
54591;SDS011;40488;48.558;18.150;2023-08-06T07:35:53;0.30;;;0.30;;
54591;SDS011;40488;48.558;18.150;2023-08-06T07:38:22;0.40;;;0.40;;
54591;SDS011;40488;48.558;18.150;2023-08-06T07:40:51;0.40;;;0.40;;
54591;SDS011;40488;48.558;18.150;2023-08-06T07:43:20;0.40;;;0.40;;
54591;SDS011;40488;48.558;18.150;2023-08-06T07:45:50;0.30;;;0.30;;
54591;SDS011;40488;48.558;18.150;2023-08-06T07:48:19;0.40;;;0.40;;
54591;SDS011;40488;48.558;18.150;2023-08-06T07:50:51;0.50;;;0.50;;
54591;SDS011;40488;48.558;18.150;2023-08-06T07:53:20;0.40;;;0.40;;
54591;SDS011;40488;48.558;18.150;2023-08-06T07:55:50;0.40;;;0.40;;
54591;SDS011;40488;48.558;18.150;2023-08-06T07:58:20;0.40;;;0.40;;
54591;SDS011;40488;48.558;18.150;2023-08-06T08:00:51;0.30;;;0.30;;
54591;SDS011;40488;48.558;18.150;2023-08-06T08:03:20;0.40;;;0.40;;
54591;SDS011;40488;48.558;18.150;2023-08-06T08:05:49;0.40;;;0.40;;
54591;SDS011;40488;48.558;18.150;2023-08-06T08:08:19;7.68;;;1.67;;
54591;SDS011;40488;48.558;18.150;2023-08-06T08:10:48;0.73;;;0.73;;
54591;SDS011;40488;48.558;18.150;2023-08-06T08:13:16;0.40;;;0.40;;
54591;SDS011;40488;48.558;18.150;2023-08-06T08:15:45;0.50;;;0.50;;
54591;SDS011;40488;48.558;18.150;2023-08-06T08:18:16;0.50;;;0.50;;
54591;SDS011;40488;48.558;18.150;2023-08-06T08:20:45;0.40;;;0.40;;
54591;SDS011;40488;48.558;18.150;2023-08-06T08:23:13;0.32;;;0.32;;
54591;SDS011;40488;48.558;18.150;2023-08-06T08:25:42;0.35;;;0.35;;
54591;SDS011;40488;48.558;18.150;2023-08-06T08:28:11;0.30;;;0.30;;
54591;SDS011;40488;48.558;18.150;2023-08-06T08:30:40;0.40;;;0.40;;
54591;SDS011;40488;48.558;18.150;2023-08-06T08:33:09;1.27;;;0.88;;
54591;SDS011;40488;48.558;18.150;2023-08-06T08:35:39;0.40;;;0.40;;
54591;SDS011;40488;48.558;18.150;2023-08-06T08:38:08;0.40;;;0.40;;
54591;SDS011;40488;48.558;18.150;2023-08-06T08:40:38;0.40;;;0.40;;
54591;SDS011;40488;48.558;18.150;2023-08-06T08:43:20;0.40;;;0.40;;
54591;SDS011;40488;48.558;18.150;2023-08-06T08:45:50;0.47;;;0.47;;
54591;SDS011;40488;48.558;18.150;2023-08-06T08:48:19;0.40;;;0.40;;
54591;SDS011;40488;48.558;18.150;2023-08-06T08:50:49;0.30;;;0.30;;
54591;SDS011;40488;48.558;18.150;2023-08-06T08:53:19;0.47;;;0.47;;
54591;SDS011;40488;48.558;18.150;2023-08-06T08:55:50;0.43;;;0.43;;
54591;SDS011;40488;48.558;18.150;2023-08-06T08:58:20;0.40;;;0.40;;
54591;SDS011;40488;48.558;18.150;2023-08-06T09:00:49;0.47;;;0.47;;
54591;SDS011;40488;48.558;18.150;2023-08-06T09:03:19;0.50;;;0.50;;
54591;SDS011;40488;48.558;18.150;2023-08-06T09:05:51;0.60;;;0.60;;
54591;SDS011;40488;48.558;18.150;2023-08-06T09:08:24;0.50;;;0.50;;
54591;SDS011;40488;48.558;18.150;2023-08-06T09:10:56;0.50;;;0.50;;
54591;SDS011;40488;48.558;18.150;2023-08-06T09:13:25;0.40;;;0.40;;
54591;SDS011;40488;48.558;18.150;2023-08-06T09:15:54;0.30;;;0.30;;
54591;SDS011;40488;48.558;18.150;2023-08-06T09:18:26;0.47;;;0.47;;
54591;SDS011;40488;48.558;18.150;2023-08-06T09:20:57;0.40;;;0.40;;
54591;SDS011;40488;48.558;18.150;2023-08-06T09:23:29;0.30;;;0.30;;
54591;SDS011;40488;48.558;18.150;2023-08-06T09:25:58;0.40;;;0.40;;
54591;SDS011;40488;48.558;18.150;2023-08-06T09:28:36;0.40;;;0.40;;
54591;SDS011;40488;48.558;18.150;2023-08-06T09:31:08;0.40;;;0.40;;
54591;SDS011;40488;48.558;18.150;2023-08-06T09:33:38;1.30;;;0.60;;
54591;SDS011;40488;48.558;18.150;2023-08-06T09:36:09;0.40;;;0.40;;
54591;SDS011;40488;48.558;18.150;2023-08-06T09:38:38;0.30;;;0.30;;
54591;SDS011;40488;48.558;18.150;2023-08-06T09:41:08;0.40;;;0.40;;
54591;SDS011;40488;48.558;18.150;2023-08-06T09:43:40;0.40;;;0.40;;
54591;SDS011;40488;48.558;18.150;2023-08-06T09:46:13;0.40;;;0.40;;
54591;SDS011;40488;48.558;18.150;2023-08-06T09:48:47;0.40;;;0.40;;
54591;SDS011;40488;48.558;18.150;2023-08-06T09:51:18;0.40;;;0.40;;
54591;SDS011;40488;48.558;18.150;2023-08-06T09:53:47;0.30;;;0.30;;
54591;SDS011;40488;48.558;18.150;2023-08-06T09:56:18;0.30;;;0.30;;
54591;SDS011;40488;48.558;18.150;2023-08-06T09:58:47;0.22;;;0.22;;
54591;SDS011;40488;48.558;18.150;2023-08-06T10:01:18;0.28;;;0.28;;
54591;SDS011;40488;48.558;18.150;2023-08-06T10:03:48;0.40;;;0.40;;
54591;SDS011;40488;48.558;18.150;2023-08-06T10:06:21;0.40;;;0.40;;
54591;SDS011;40488;48.558;18.150;2023-08-06T10:08:53;0.30;;;0.30;;
54591;SDS011;40488;48.558;18.150;2023-08-06T10:11:22;0.45;;;0.45;;
54591;SDS011;40488;48.558;18.150;2023-08-06T10:13:54;0.28;;;0.28;;
54591;SDS011;40488;48.558;18.150;2023-08-06T10:16:26;0.47;;;0.47;;
54591;SDS011;40488;48.558;18.150;2023-08-06T10:21:27;0.35;;;0.35;;
54591;SDS011;40488;48.558;18.150;2023-08-06T10:23:57;0.30;;;0.30;;
54591;SDS011;40488;48.558;18.150;2023-08-06T10:26:28;0.70;;;0.70;;
54591;SDS011;40488;48.558;18.150;2023-08-06T10:28:57;0.30;;;0.30;;
54591;SDS011;40488;48.558;18.150;2023-08-06T10:34:17;0.70;;;0.70;;
54591;SDS011;40488;48.558;18.150;2023-08-06T10:39:17;0.30;;;0.30;;
54591;SDS011;40488;48.558;18.150;2023-08-06T10:41:57;0.40;;;0.40;;
54591;SDS011;40488;48.558;18.150;2023-08-06T10:44:26;0.40;;;0.40;;
54591;SDS011;40488;48.558;18.150;2023-08-06T10:47:12;0.40;;;0.40;;
54591;SDS011;40488;48.558;18.150;2023-08-06T10:49:55;0.47;;;0.47;;
54591;SDS011;40488;48.558;18.150;2023-08-06T10:52:27;0.40;;;0.40;;
54591;SDS011;40488;48.558;18.150;2023-08-06T10:54:56;0.38;;;0.38;;
54591;SDS011;40488;48.558;18.150;2023-08-06T10:57:25;0.30;;;0.30;;
54591;SDS011;40488;48.558;18.150;2023-08-06T10:59:54;0.40;;;0.40;;
54591;SDS011;40488;48.558;18.150;2023-08-06T11:02:41;0.50;;;0.50;;
54591;SDS011;40488;48.558;18.150;2023-08-06T11:07:42;0.40;;;0.40;;
54591;SDS011;40488;48.558;18.150;2023-08-06T11:10:12;0.40;;;0.40;;
54591;SDS011;40488;48.558;18.150;2023-08-06T11:12:41;0.38;;;0.38;;
54591;SDS011;40488;48.558;18.150;2023-08-06T11:15:10;0.40;;;0.40;;
54591;SDS011;40488;48.558;18.150;2023-08-06T11:17:40;0.30;;;0.30;;
54591;SDS011;40488;48.558;18.150;2023-08-06T11:20:10;0.50;;;0.50;;
54591;SDS011;40488;48.558;18.150;2023-08-06T11:22:44;0.50;;;0.50;;
54591;SDS011;40488;48.558;18.150;2023-08-06T11:25:13;0.30;;;0.30;;
54591;SDS011;40488;48.558;18.150;2023-08-06T11:27:42;0.30;;;0.30;;
54591;SDS011;40488;48.558;18.150;2023-08-06T11:30:12;0.30;;;0.30;;
54591;SDS011;40488;48.558;18.150;2023-08-06T11:32:47;0.43;;;0.43;;
54591;SDS011;40488;48.558;18.150;2023-08-06T11:35:16;0.30;;;0.30;;
54591;SDS011;40488;48.558;18.150;2023-08-06T11:37:47;0.38;;;0.38;;
54591;SDS011;40488;48.558;18.150;2023-08-06T11:40:16;0.28;;;0.28;;
54591;SDS011;40488;48.558;18.150;2023-08-06T11:42:46;0.40;;;0.40;;
54591;SDS011;40488;48.558;18.150;2023-08-06T11:45:15;0.30;;;0.30;;
54591;SDS011;40488;48.558;18.150;2023-08-06T11:47:49;0.35;;;0.35;;
54591;SDS011;40488;48.558;18.150;2023-08-06T11:50:23;0.40;;;0.40;;
54591;SDS011;40488;48.558;18.150;2023-08-06T11:52:54;0.40;;;0.40;;
54591;SDS011;40488;48.558;18.150;2023-08-06T11:55:25;0.40;;;0.40;;
54591;SDS011;40488;48.558;18.150;2023-08-06T11:57:55;0.50;;;0.50;;
54591;SDS011;40488;48.558;18.150;2023-08-06T12:00:24;0.40;;;0.40;;
54591;SDS011;40488;48.558;18.150;2023-08-06T12:02:54;0.47;;;0.47;;
54591;SDS011;40488;48.558;18.150;2023-08-06T12:05:28;0.40;;;0.40;;
54591;SDS011;40488;48.558;18.150;2023-08-06T12:08:02;0.40;;;0.40;;
54591;SDS011;40488;48.558;18.150;2023-08-06T12:10:31;0.30;;;0.30;;
54591;SDS011;40488;48.558;18.150;2023-08-06T12:15:29;0.30;;;0.30;;
54591;SDS011;40488;48.558;18.150;2023-08-06T12:17:59;0.35;;;0.35;;
54591;SDS011;40488;48.558;18.150;2023-08-06T12:20:28;0.30;;;0.30;;
54591;SDS011;40488;48.558;18.150;2023-08-06T12:22:58;0.40;;;0.40;;
54591;SDS011;40488;48.558;18.150;2023-08-06T12:25:28;0.40;;;0.40;;
54591;SDS011;40488;48.558;18.150;2023-08-06T12:27:57;0.50;;;0.50;;
54591;SDS011;40488;48.558;18.150;2023-08-06T12:30:26;0.40;;;0.40;;
54591;SDS011;40488;48.558;18.150;2023-08-06T12:32:55;0.40;;;0.40;;
54591;SDS011;40488;48.558;18.150;2023-08-06T12:35:24;0.40;;;0.40;;
54591;SDS011;40488;48.558;18.150;2023-08-06T12:37:54;0.40;;;0.40;;
54591;SDS011;40488;48.558;18.150;2023-08-06T12:40:24;0.40;;;0.40;;
54591;SDS011;40488;48.558;18.150;2023-08-06T12:45:33;0.40;;;0.40;;
54591;SDS011;40488;48.558;18.150;2023-08-06T12:48:02;0.50;;;0.50;;
54591;SDS011;40488;48.558;18.150;2023-08-06T12:50:31;0.40;;;0.40;;
54591;SDS011;40488;48.558;18.150;2023-08-06T12:53:01;0.40;;;0.40;;
54591;SDS011;40488;48.558;18.150;2023-08-06T12:55:32;0.43;;;0.40;;
54591;SDS011;40488;48.558;18.150;2023-08-06T12:58:01;0.40;;;0.40;;
54591;SDS011;40488;48.558;18.150;2023-08-06T13:00:31;0.30;;;0.30;;
54591;SDS011;40488;48.558;18.150;2023-08-06T13:03:01;0.60;;;0.60;;
54591;SDS011;40488;48.558;18.150;2023-08-06T13:07:59;0.43;;;0.43;;
54591;SDS011;40488;48.558;18.150;2023-08-06T13:10:29;1.02;;;0.95;;
54591;SDS011;40488;48.558;18.150;2023-08-06T13:12:58;0.55;;;0.52;;
54591;SDS011;40488;48.558;18.150;2023-08-06T13:15:27;0.50;;;0.50;;
54591;SDS011;40488;48.558;18.150;2023-08-06T13:17:57;0.50;;;0.50;;
54591;SDS011;40488;48.558;18.150;2023-08-06T13:20:26;0.43;;;0.43;;
54591;SDS011;40488;48.558;18.150;2023-08-06T13:22:54;0.30;;;0.30;;
54591;SDS011;40488;48.558;18.150;2023-08-06T13:25:23;0.40;;;0.40;;
54591;SDS011;40488;48.558;18.150;2023-08-06T13:27:52;0.30;;;0.30;;
54591;SDS011;40488;48.558;18.150;2023-08-06T13:30:21;0.50;;;0.50;;
54591;SDS011;40488;48.558;18.150;2023-08-06T13:32:51;0.40;;;0.40;;
54591;SDS011;40488;48.558;18.150;2023-08-06T13:35:21;0.47;;;0.47;;
54591;SDS011;40488;48.558;18.150;2023-08-06T13:37:51;0.43;;;0.43;;
54591;SDS011;40488;48.558;18.150;2023-08-06T13:40:21;0.65;;;0.60;;
54591;SDS011;40488;48.558;18.150;2023-08-06T13:42:50;0.40;;;0.40;;
54591;SDS011;40488;48.558;18.150;2023-08-06T13:45:19;0.60;;;0.60;;
54591;SDS011;40488;48.558;18.150;2023-08-06T13:47:48;0.40;;;0.40;;
54591;SDS011;40488;48.558;18.150;2023-08-06T13:50:17;0.77;;;0.77;;
54591;SDS011;40488;48.558;18.150;2023-08-06T13:52:50;0.50;;;0.50;;
54591;SDS011;40488;48.558;18.150;2023-08-06T13:55:22;0.50;;;0.50;;
54591;SDS011;40488;48.558;18.150;2023-08-06T13:57:51;0.50;;;0.50;;
54591;SDS011;40488;48.558;18.150;2023-08-06T14:00:20;0.50;;;0.50;;
54591;SDS011;40488;48.558;18.150;2023-08-06T14:02:49;0.90;;;0.88;;
54591;SDS011;40488;48.558;18.150;2023-08-06T14:05:18;0.30;;;0.30;;
54591;SDS011;40488;48.558;18.150;2023-08-06T14:07:47;0.70;;;0.70;;
54591;SDS011;40488;48.558;18.150;2023-08-06T14:10:18;0.45;;;0.45;;
54591;SDS011;40488;48.558;18.150;2023-08-06T14:12:47;0.50;;;0.50;;
54591;SDS011;40488;48.558;18.150;2023-08-06T14:15:35;0.50;;;0.50;;
54591;SDS011;40488;48.558;18.150;2023-08-06T14:18:06;1.05;;;0.55;;
54591;SDS011;40488;48.558;18.150;2023-08-06T14:20:36;0.52;;;0.52;;
54591;SDS011;40488;48.558;18.150;2023-08-06T14:23:05;0.47;;;0.47;;
54591;SDS011;40488;48.558;18.150;2023-08-06T14:25:35;0.50;;;0.50;;
54591;SDS011;40488;48.558;18.150;2023-08-06T14:28:04;0.85;;;0.85;;
54591;SDS011;40488;48.558;18.150;2023-08-06T14:30:34;0.50;;;0.50;;
54591;SDS011;40488;48.558;18.150;2023-08-06T14:33:03;0.43;;;0.43;;
54591;SDS011;40488;48.558;18.150;2023-08-06T14:35:52;0.50;;;0.50;;
54591;SDS011;40488;48.558;18.150;2023-08-06T14:38:20;0.40;;;0.40;;
54591;SDS011;40488;48.558;18.150;2023-08-06T14:40:51;0.50;;;0.50;;
54591;SDS011;40488;48.558;18.150;2023-08-06T14:43:19;1.48;;;0.50;;
54591;SDS011;40488;48.558;18.150;2023-08-06T14:45:48;2.85;;;0.50;;
54591;SDS011;40488;48.558;18.150;2023-08-06T14:48:17;0.60;;;0.50;;
54591;SDS011;40488;48.558;18.150;2023-08-06T14:50:46;0.73;;;0.67;;
54591;SDS011;40488;48.558;18.150;2023-08-06T14:53:15;0.40;;;0.40;;
54591;SDS011;40488;48.558;18.150;2023-08-06T14:55:44;0.60;;;0.60;;
54591;SDS011;40488;48.558;18.150;2023-08-06T14:58:14;1.00;;;0.90;;
54591;SDS011;40488;48.558;18.150;2023-08-06T15:00:44;0.80;;;0.77;;
54591;SDS011;40488;48.558;18.150;2023-08-06T15:03:13;0.52;;;0.52;;
54591;SDS011;40488;48.558;18.150;2023-08-06T15:05:43;0.80;;;0.80;;
54591;SDS011;40488;48.558;18.150;2023-08-06T15:08:12;0.60;;;0.60;;
54591;SDS011;40488;48.558;18.150;2023-08-06T15:10:41;0.50;;;0.50;;
54591;SDS011;40488;48.558;18.150;2023-08-06T15:13:10;0.50;;;0.50;;